sensor_id;sensor_type;location;lat;lon;timestamp;temperature;humidity
24374;DHT22;12498;50.880;12.096;2023-03-23T11:49:21;14.60;1.00
24374;DHT22;12498;50.880;12.096;2023-03-23T11:51:53;15.80;1.00
24374;DHT22;12498;50.880;12.096;2023-03-23T11:54:21;15.30;1.00
24374;DHT22;12498;50.880;12.096;2023-03-23T11:56:49;15.30;1.00
24374;DHT22;12498;50.880;12.096;2023-03-23T11:59:27;15.30;1.00
24374;DHT22;12498;50.880;12.096;2023-03-23T12:46:24;15.70;1.00
24374;DHT22;12498;50.880;12.096;2023-03-23T12:58:42;15.70;1.00
24374;DHT22;12498;50.880;12.096;2023-03-23T13:01:17;15.90;1.00
24374;DHT22;12498;50.880;12.096;2023-03-23T13:08:42;14.90;1.00
24374;DHT22;12498;50.880;12.096;2023-03-23T13:11:43;16.80;1.00
24374;DHT22;12498;50.880;12.096;2023-03-23T13:16:44;16.00;1.00
24374;DHT22;12498;50.880;12.096;2023-03-23T13:21:48;15.80;1.00
24374;DHT22;12498;50.880;12.096;2023-03-23T13:24:19;15.80;1.00
24374;DHT22;12498;50.880;12.096;2023-03-23T13:26:48;16.10;1.00
24374;DHT22;12498;50.880;12.096;2023-03-23T13:29:21;16.10;1.00
24374;DHT22;12498;50.880;12.096;2023-03-23T13:31:49;16.30;1.00
24374;DHT22;12498;50.880;12.096;2023-03-23T13:34:17;16.60;1.00
24374;DHT22;12498;50.880;12.096;2023-03-23T13:36:53;16.90;1.00
24374;DHT22;12498;50.880;12.096;2023-03-23T13:39:21;17.10;1.00
24374;DHT22;12498;50.880;12.096;2023-03-23T13:49:55;17.70;1.00
24374;DHT22;12498;50.880;12.096;2023-03-23T13:52:22;17.40;1.00
24374;DHT22;12498;50.880;12.096;2023-03-23T13:54:48;17.10;1.00
24374;DHT22;12498;50.880;12.096;2023-03-23T13:59:47;16.80;1.00
24374;DHT22;12498;50.880;12.096;2023-03-23T14:02:32;16.40;1.00
24374;DHT22;12498;50.880;12.096;2023-03-23T14:05:41;16.10;1.00
24374;DHT22;12498;50.880;12.096;2023-03-23T14:07:55;15.90;1.00
24374;DHT22;12498;50.880;12.096;2023-03-23T14:10:22;15.80;1.00
24374;DHT22;12498;50.880;12.096;2023-03-23T14:12:49;15.80;1.00
24374;DHT22;12498;50.880;12.096;2023-03-23T14:15:15;15.80;1.00
24374;DHT22;12498;50.880;12.096;2023-03-23T14:17:42;15.80;1.00
24374;DHT22;12498;50.880;12.096;2023-03-23T14:20:21;16.00;1.00
24374;DHT22;12498;50.880;12.096;2023-03-23T14:22:52;16.00;1.00
24374;DHT22;12498;50.880;12.096;2023-03-23T14:25:18;16.00;1.00
24374;DHT22;12498;50.880;12.096;2023-03-23T14:27:46;15.70;1.00
24374;DHT22;12498;50.880;12.096;2023-03-23T14:30:16;15.50;1.00
24374;DHT22;12498;50.880;12.096;2023-03-23T14:32:42;15.40;1.00
24374;DHT22;12498;50.880;12.096;2023-03-23T14:37:54;15.10;1.00
24374;DHT22;12498;50.880;12.096;2023-03-23T14:40:20;15.10;1.00
24374;DHT22;12498;50.880;12.096;2023-03-23T14:42:46;15.10;1.00
24374;DHT22;12498;50.880;12.096;2023-03-23T14:45:16;15.00;1.00
24374;DHT22;12498;50.880;12.096;2023-03-23T14:47:43;15.00;1.00
24374;DHT22;12498;50.880;12.096;2023-03-23T14:50:24;15.00;1.00
24374;DHT22;12498;50.880;12.096;2023-03-23T14:52:50;14.90;1.00
24374;DHT22;12498;50.880;12.096;2023-03-23T14:55:22;14.90;1.00
24374;DHT22;12498;50.880;12.096;2023-03-23T14:57:48;14.90;1.00
24374;DHT22;12498;50.880;12.096;2023-03-23T15:00:15;14.90;1.00
24374;DHT22;12498;50.880;12.096;2023-03-23T15:02:41;14.80;1.00
24374;DHT22;12498;50.880;12.096;2023-03-23T15:05:12;14.80;1.00
24374;DHT22;12498;50.880;12.096;2023-03-23T15:07:39;14.80;1.00
24374;DHT22;12498;50.880;12.096;2023-03-23T15:10:06;14.80;1.00
24374;DHT22;12498;50.880;12.096;2023-03-23T15:12:32;14.80;1.00
24374;DHT22;12498;50.880;12.096;2023-03-23T15:17:25;14.40;1.00
24374;DHT22;12498;50.880;12.096;2023-03-23T15:19:52;14.40;1.00
24374;DHT22;12498;50.880;12.096;2023-03-23T15:29:45;14.60;1.00
24374;DHT22;12498;50.880;12.096;2023-03-23T15:32:11;14.60;1.00
24374;DHT22;12498;50.880;12.096;2023-03-23T15:34:36;14.70;1.00
24374;DHT22;12498;50.880;12.096;2023-03-23T15:37:15;14.50;1.00
24374;DHT22;12498;50.880;12.096;2023-03-23T15:39:42;14.50;1.00
24374;DHT22;12498;50.880;12.096;2023-03-23T15:42:18;14.50;1.00
24374;DHT22;12498;50.880;12.096;2023-03-23T15:44:44;14.50;1.00
24374;DHT22;12498;50.880;12.096;2023-03-23T15:47:19;14.60;1.00
24374;DHT22;12498;50.880;12.096;2023-03-23T15:49:46;14.60;1.00
24374;DHT22;12498;50.880;12.096;2023-03-23T15:52:13;14.20;1.00
24374;DHT22;12498;50.880;12.096;2023-03-23T15:54:40;14.50;1.00
24374;DHT22;12498;50.880;12.096;2023-03-23T15:57:10;14.60;1.00
24374;DHT22;12498;50.880;12.096;2023-03-23T15:59:36;14.70;1.00
24374;DHT22;12498;50.880;12.096;2023-03-23T16:02:02;14.70;1.00
24374;DHT22;12498;50.880;12.096;2023-03-23T16:04:28;14.90;1.00
24374;DHT22;12498;50.880;12.096;2023-03-23T16:16:41;14.90;1.00
24374;DHT22;12498;50.880;12.096;2023-03-23T16:19:10;15.00;1.00
24374;DHT22;12498;50.880;12.096;2023-03-23T16:24:02;14.70;1.00
24374;DHT22;12498;50.880;12.096;2023-03-23T16:28:53;14.70;1.00
24374;DHT22;12498;50.880;12.096;2023-03-23T16:33:45;14.60;1.00
24374;DHT22;12498;50.880;12.096;2023-03-23T16:36:11;14.60;1.00
24374;DHT22;12498;50.880;12.096;2023-03-23T16:38:37;14.00;1.00
24374;DHT22;12498;50.880;12.096;2023-03-23T16:41:02;14.60;1.00
24374;DHT22;12498;50.880;12.096;2023-03-23T16:43:28;14.40;1.00
24374;DHT22;12498;50.880;12.096;2023-03-23T16:45:54;14.30;1.00
24374;DHT22;12498;50.880;12.096;2023-03-23T16:48:20;14.30;1.00
24374;DHT22;12498;50.880;12.096;2023-03-23T16:50:45;14.50;1.00
24374;DHT22;12498;50.880;12.096;2023-03-23T16:55:37;14.20;1.00
24374;DHT22;12498;50.880;12.096;2023-03-23T16:58:03;14.30;1.00
24374;DHT22;12498;50.880;12.096;2023-03-23T17:00:29;14.20;1.00
24374;DHT22;12498;50.880;12.096;2023-03-23T17:02:54;14.20;1.00
24374;DHT22;12498;50.880;12.096;2023-03-23T17:05:24;14.10;1.00
24374;DHT22;12498;50.880;12.096;2023-03-23T17:07:50;14.20;1.00
24374;DHT22;12498;50.880;12.096;2023-03-23T17:15:08;14.00;1.00
24374;DHT22;12498;50.880;12.096;2023-03-23T17:20:00;13.90;1.00
24374;DHT22;12498;50.880;12.096;2023-03-23T17:22:26;13.90;1.00
24374;DHT22;12498;50.880;12.096;2023-03-23T17:24:52;13.80;1.00
24374;DHT22;12498;50.880;12.096;2023-03-23T17:27:18;13.70;1.00
24374;DHT22;12498;50.880;12.096;2023-03-23T17:29:44;13.80;1.00
24374;DHT22;12498;50.880;12.096;2023-03-23T17:32:10;13.70;1.00
24374;DHT22;12498;50.880;12.096;2023-03-23T17:37:01;13.70;1.00
24374;DHT22;12498;50.880;12.096;2023-03-23T17:39:27;13.70;1.00
24374;DHT22;12498;50.880;12.096;2023-03-23T17:41:53;14.10;1.00
24374;DHT22;12498;50.880;12.096;2023-03-23T17:49:10;13.50;1.00
24374;DHT22;12498;50.880;12.096;2023-03-23T17:54:02;13.50;1.00
24374;DHT22;12498;50.880;12.096;2023-03-23T17:56:27;13.50;1.00
24374;DHT22;12498;50.880;12.096;2023-03-23T17:58:53;13.20;1.00
24374;DHT22;12498;50.880;12.096;2023-03-23T18:01:18;13.60;1.00
24374;DHT22;12498;50.880;12.096;2023-03-23T18:03:44;13.50;1.00
24374;DHT22;12498;50.880;12.096;2023-03-23T18:06:09;13.50;1.00
24374;DHT22;12498;50.880;12.096;2023-03-23T18:08:35;13.40;1.00
24374;DHT22;12498;50.880;12.096;2023-03-23T18:11:01;13.60;1.00
24374;DHT22;12498;50.880;12.096;2023-03-23T18:13:27;13.40;1.00
24374;DHT22;12498;50.880;12.096;2023-03-23T18:18:19;13.30;1.00
24374;DHT22;12498;50.880;12.096;2023-03-23T18:23:10;13.30;1.00
24374;DHT22;12498;50.880;12.096;2023-03-23T18:25:36;13.20;2.60
24374;DHT22;12498;50.880;12.096;2023-03-23T18:28:02;13.30;2.70
24374;DHT22;12498;50.880;12.096;2023-03-23T18:32:53;13.20;1.30
24374;DHT22;12498;50.880;12.096;2023-03-23T18:35:19;13.30;1.90
24374;DHT22;12498;50.880;12.096;2023-03-23T18:37:45;13.30;3.90
24374;DHT22;12498;50.880;12.096;2023-03-23T18:40:12;13.40;3.90
24374;DHT22;12498;50.880;12.096;2023-03-23T18:42:39;13.70;5.60
24374;DHT22;12498;50.880;12.096;2023-03-23T18:45:05;13.20;7.50
24374;DHT22;12498;50.880;12.096;2023-03-23T18:47:30;13.20;5.90
24374;DHT22;12498;50.880;12.096;2023-03-23T18:49:56;13.40;7.30
24374;DHT22;12498;50.880;12.096;2023-03-23T18:52:24;13.30;6.40
24374;DHT22;12498;50.880;12.096;2023-03-23T18:54:55;13.30;8.00
24374;DHT22;12498;50.880;12.096;2023-03-23T18:57:21;13.30;7.40
24374;DHT22;12498;50.880;12.096;2023-03-23T18:59:47;13.20;7.20
24374;DHT22;12498;50.880;12.096;2023-03-23T19:02:12;13.10;8.40
24374;DHT22;12498;50.880;12.096;2023-03-23T19:07:04;13.00;9.70
24374;DHT22;12498;50.880;12.096;2023-03-23T19:09:30;13.20;13.40
24374;DHT22;12498;50.880;12.096;2023-03-23T19:11:56;13.40;10.60
24374;DHT22;12498;50.880;12.096;2023-03-23T19:21:39;13.10;13.90
24374;DHT22;12498;50.880;12.096;2023-03-23T19:26:32;13.10;8.60
24374;DHT22;12498;50.880;12.096;2023-03-23T19:28:58;13.10;9.10
24374;DHT22;12498;50.880;12.096;2023-03-23T19:31:24;13.20;9.70
24374;DHT22;12498;50.880;12.096;2023-03-23T19:33:51;13.10;8.00
24374;DHT22;12498;50.880;12.096;2023-03-23T19:36:17;13.20;7.20
24374;DHT22;12498;50.880;12.096;2023-03-23T19:38:43;13.20;8.70
24374;DHT22;12498;50.880;12.096;2023-03-23T19:43:34;12.90;11.30
24374;DHT22;12498;50.880;12.096;2023-03-23T19:46:00;13.10;14.40
24374;DHT22;12498;50.880;12.096;2023-03-23T19:48:25;13.10;12.30
24374;DHT22;12498;50.880;12.096;2023-03-23T19:53:17;13.00;11.30
24374;DHT22;12498;50.880;12.096;2023-03-23T19:55:43;13.00;11.10
24374;DHT22;12498;50.880;12.096;2023-03-23T19:58:08;12.90;13.60
24374;DHT22;12498;50.880;12.096;2023-03-23T20:05:26;13.00;16.20
24374;DHT22;12498;50.880;12.096;2023-03-23T20:10:17;12.90;13.40
24374;DHT22;12498;50.880;12.096;2023-03-23T20:12:43;13.10;16.60
24374;DHT22;12498;50.880;12.096;2023-03-23T20:15:09;12.80;18.40
24374;DHT22;12498;50.880;12.096;2023-03-23T20:17:34;13.00;15.50
24374;DHT22;12498;50.880;12.096;2023-03-23T20:20:00;13.00;15.00
24374;DHT22;12498;50.880;12.096;2023-03-23T20:24:52;12.80;20.70
24374;DHT22;12498;50.880;12.096;2023-03-23T20:27:18;12.80;22.90
24374;DHT22;12498;50.880;12.096;2023-03-23T20:29:43;13.00;22.10
24374;DHT22;12498;50.880;12.096;2023-03-23T20:32:09;12.70;22.20
24374;DHT22;12498;50.880;12.096;2023-03-23T20:41:55;12.70;23.30
24374;DHT22;12498;50.880;12.096;2023-03-23T20:44:23;12.70;25.00
24374;DHT22;12498;50.880;12.096;2023-03-23T20:49:15;12.70;23.90
24374;DHT22;12498;50.880;12.096;2023-03-23T20:51:41;12.90;24.80
24374;DHT22;12498;50.880;12.096;2023-03-23T20:54:07;13.10;22.90
24374;DHT22;12498;50.880;12.096;2023-03-23T20:56:34;12.80;24.40
24374;DHT22;12498;50.880;12.096;2023-03-23T20:59:00;12.70;25.70
24374;DHT22;12498;50.880;12.096;2023-03-23T21:01:26;12.60;25.00
24374;DHT22;12498;50.880;12.096;2023-03-23T21:03:51;12.60;24.40
24374;DHT22;12498;50.880;12.096;2023-03-23T21:06:18;12.60;24.20
24374;DHT22;12498;50.880;12.096;2023-03-23T21:16:03;12.70;40.40
24374;DHT22;12498;50.880;12.096;2023-03-23T21:18:29;12.70;28.50
24374;DHT22;12498;50.880;12.096;2023-03-23T21:20:55;12.70;37.80
24374;DHT22;12498;50.880;12.096;2023-03-23T21:25:51;12.70;6.90
24374;DHT22;12498;50.880;12.096;2023-03-23T21:28:16;12.60;17.00
24374;DHT22;12498;50.880;12.096;2023-03-23T21:30:43;12.60;11.00
24374;DHT22;12498;50.880;12.096;2023-03-23T21:33:12;12.70;10.00
24374;DHT22;12498;50.880;12.096;2023-03-23T21:35:38;12.60;13.10
24374;DHT22;12498;50.880;12.096;2023-03-23T21:38:05;12.50;8.40
24374;DHT22;12498;50.880;12.096;2023-03-23T21:42:57;12.50;10.90
24374;DHT22;12498;50.880;12.096;2023-03-23T22:00:07;12.50;15.80
24374;DHT22;12498;50.880;12.096;2023-03-23T22:04:59;12.30;10.30
24374;DHT22;12498;50.880;12.096;2023-03-23T22:07:25;12.40;9.10
24374;DHT22;12498;50.880;12.096;2023-03-23T22:12:17;12.30;12.90
24374;DHT22;12498;50.880;12.096;2023-03-23T22:14:43;12.20;10.60
24374;DHT22;12498;50.880;12.096;2023-03-23T22:17:08;12.40;10.70
24374;DHT22;12498;50.880;12.096;2023-03-23T22:19:34;12.10;14.60
24374;DHT22;12498;50.880;12.096;2023-03-23T22:22:01;12.20;14.70
24374;DHT22;12498;50.880;12.096;2023-03-23T22:24:28;12.10;21.10
24374;DHT22;12498;50.880;12.096;2023-03-23T22:26:54;12.00;22.50
24374;DHT22;12498;50.880;12.096;2023-03-23T22:29:19;12.20;31.40
24374;DHT22;12498;50.880;12.096;2023-03-23T22:31:45;12.20;31.80
24374;DHT22;12498;50.880;12.096;2023-03-23T22:34:11;12.10;34.20
24374;DHT22;12498;50.880;12.096;2023-03-23T22:36:37;12.20;33.60
24374;DHT22;12498;50.880;12.096;2023-03-23T22:39:03;12.10;37.10
24374;DHT22;12498;50.880;12.096;2023-03-23T22:41:33;12.20;35.50
24374;DHT22;12498;50.880;12.096;2023-03-23T22:43:59;12.10;36.10
24374;DHT22;12498;50.880;12.096;2023-03-23T22:46:25;12.00;38.10
24374;DHT22;12498;50.880;12.096;2023-03-23T22:48:51;12.10;39.00
24374;DHT22;12498;50.880;12.096;2023-03-23T22:51:17;12.30;39.70
24374;DHT22;12498;50.880;12.096;2023-03-23T22:53:43;12.30;38.80
24374;DHT22;12498;50.880;12.096;2023-03-23T22:56:09;12.20;36.40
24374;DHT22;12498;50.880;12.096;2023-03-23T22:58:34;12.30;37.50
24374;DHT22;12498;50.880;12.096;2023-03-23T23:01:01;11.90;37.80
24374;DHT22;12498;50.880;12.096;2023-03-23T23:03:28;12.00;36.40
24374;DHT22;12498;50.880;12.096;2023-03-23T23:05:55;12.20;40.00
24374;DHT22;12498;50.880;12.096;2023-03-23T23:08:21;12.10;44.50
24374;DHT22;12498;50.880;12.096;2023-03-23T23:10:47;12.10;43.30
24374;DHT22;12498;50.880;12.096;2023-03-23T23:13:14;12.20;46.60
24374;DHT22;12498;50.880;12.096;2023-03-23T23:15:42;12.20;47.00
24374;DHT22;12498;50.880;12.096;2023-03-23T23:18:08;12.00;44.70
24374;DHT22;12498;50.880;12.096;2023-03-23T23:20:34;12.10;46.80
24374;DHT22;12498;50.880;12.096;2023-03-23T23:23:00;12.20;48.30
24374;DHT22;12498;50.880;12.096;2023-03-23T23:25:27;12.10;47.30
24374;DHT22;12498;50.880;12.096;2023-03-23T23:27:53;12.00;50.20
24374;DHT22;12498;50.880;12.096;2023-03-23T23:30:19;12.10;52.50
24374;DHT22;12498;50.880;12.096;2023-03-23T23:32:44;12.00;52.20
24374;DHT22;12498;50.880;12.096;2023-03-23T23:35:10;12.10;51.40
24374;DHT22;12498;50.880;12.096;2023-03-23T23:37:36;12.10;49.10
24374;DHT22;12498;50.880;12.096;2023-03-23T23:40:02;12.00;49.30
24374;DHT22;12498;50.880;12.096;2023-03-23T23:42:32;12.00;50.00
24374;DHT22;12498;50.880;12.096;2023-03-23T23:44:57;12.10;47.90
24374;DHT22;12498;50.880;12.096;2023-03-23T23:47:23;12.20;48.10
24374;DHT22;12498;50.880;12.096;2023-03-23T23:49:48;11.90;48.30
24374;DHT22;12498;50.880;12.096;2023-03-23T23:52:14;12.00;47.90
24374;DHT22;12498;50.880;12.096;2023-03-23T23:54:40;12.00;46.10
24374;DHT22;12498;50.880;12.096;2023-03-23T23:57:07;11.70;41.10
24374;DHT22;12498;50.880;12.096;2023-03-23T23:59:32;12.00;40.20
